createdAt,value
2023-04-01T00:01:14.994Z,1.58
2023-04-01T00:03:43.467Z,1.87
2023-04-01T00:06:15.556Z,1.40
2023-04-01T00:08:43.692Z,1.60
2023-04-01T00:11:11.955Z,1.50
2023-04-01T00:13:41.781Z,2.00
2023-04-01T00:16:20.877Z,2.65
2023-04-01T00:18:51.217Z,1.80
2023-04-01T00:21:20.002Z,2.00
2023-04-01T00:23:48.208Z,1.38
2023-04-01T00:26:20.116Z,1.67
2023-04-01T00:28:49.673Z,1.83
2023-04-01T00:31:17.925Z,1.63
2023-04-01T00:33:46.892Z,1.52
2023-04-01T00:36:17.185Z,1.45
2023-04-01T00:38:47.061Z,2.10
2023-04-01T00:41:16.983Z,2.05
2023-04-01T00:43:47.638Z,2.40
2023-04-01T00:46:17.512Z,2.22
2023-04-01T00:48:49.947Z,2.25
2023-04-01T00:51:22.596Z,1.65
2023-04-01T00:53:53.166Z,2.25
2023-04-01T00:56:26.308Z,2.05
2023-04-01T00:58:59.793Z,1.98
2023-04-01T01:01:32.297Z,2.00
2023-04-01T01:04:00.803Z,2.20
2023-04-01T01:06:48.811Z,1.80
2023-04-01T01:09:33.430Z,1.90
2023-04-01T01:12:10.425Z,1.88
2023-04-01T01:14:56.191Z,1.70
2023-04-01T01:17:38.123Z,1.60
2023-04-01T01:20:26.868Z,1.75
2023-04-01T01:23:16.233Z,1.65
2023-04-01T01:25:51.149Z,2.15
2023-04-01T01:28:36.257Z,2.00
2023-04-01T01:31:14.437Z,2.25
2023-04-01T01:33:55.508Z,2.10
2023-04-01T01:36:29.149Z,2.17
2023-04-01T01:38:59.098Z,2.83
2023-04-01T01:41:29.111Z,2.88
2023-04-01T01:44:01.110Z,2.72
2023-04-01T01:46:31.916Z,3.03
2023-04-01T01:49:02.231Z,3.42
2023-04-01T01:51:32.130Z,3.15
2023-04-01T01:54:00.261Z,3.58
2023-04-01T01:56:31.569Z,3.97
2023-04-01T01:59:05.381Z,3.50
2023-04-01T02:01:37.843Z,3.33
2023-04-01T02:04:07.146Z,3.70
2023-04-01T02:06:40.639Z,3.17
2023-04-01T02:09:11.841Z,3.28
2023-04-01T02:11:46.340Z,3.50
2023-04-01T02:14:17.797Z,2.97
2023-04-01T02:16:51.165Z,3.00
2023-04-01T02:19:23.720Z,1.95
2023-04-01T02:21:57.390Z,2.38
2023-04-01T02:24:29.211Z,1.80
2023-04-01T02:26:57.316Z,1.50
2023-04-01T02:29:27.331Z,1.55
2023-04-01T02:31:57.090Z,2.35
2023-04-01T02:34:26.788Z,2.33
2023-04-01T02:36:58.318Z,2.60
2023-04-01T02:39:26.711Z,2.10
2023-04-01T02:41:55.528Z,2.47
2023-04-01T02:44:23.694Z,2.50
2023-04-01T02:46:51.966Z,2.83
2023-04-01T02:49:20.100Z,2.20
2023-04-01T02:51:48.179Z,2.30
2023-04-01T02:54:17.682Z,2.38
2023-04-01T02:56:46.637Z,2.15
2023-04-01T02:59:14.797Z,2.28
2023-04-01T03:01:42.948Z,2.72
2023-04-01T03:04:11.187Z,2.45
2023-04-01T03:06:39.291Z,2.47
2023-04-01T03:09:07.413Z,2.88
2023-04-01T03:11:36.978Z,2.80
2023-04-01T03:14:05.117Z,2.35
2023-04-01T03:16:33.267Z,2.45
2023-04-01T03:19:03.057Z,2.67
2023-04-01T03:21:31.127Z,2.50
2023-04-01T03:23:59.770Z,2.33
2023-04-01T03:26:28.958Z,1.92
2023-04-01T03:28:58.502Z,2.10
2023-04-01T03:31:26.981Z,1.90
2023-04-01T03:33:55.229Z,2.00
2023-04-01T03:36:23.340Z,1.80
2023-04-01T03:38:51.613Z,1.80
2023-04-01T03:41:20.742Z,1.50
2023-04-01T03:43:48.867Z,1.30
2023-04-01T03:46:21.802Z,1.40
2023-04-01T03:48:50.204Z,1.08
2023-04-01T03:51:18.350Z,1.10
2023-04-01T03:53:46.479Z,1.25
2023-04-01T03:56:14.696Z,1.23
2023-04-01T03:58:42.804Z,1.40
2023-04-01T04:01:23.025Z,1.20
2023-04-01T04:03:52.397Z,1.20
2023-04-01T04:06:21.705Z,1.48
2023-04-01T04:08:49.850Z,1.13
2023-04-01T04:11:18.121Z,1.20
2023-04-01T04:13:46.222Z,1.20
2023-04-01T04:16:14.445Z,1.20
2023-04-01T04:18:44.254Z,1.48
2023-04-01T04:21:15.684Z,1.27
2023-04-01T04:23:44.369Z,1.20
2023-04-01T04:26:15.231Z,1.13
2023-04-01T04:28:43.653Z,1.38
2023-04-01T04:31:11.895Z,1.33
2023-04-01T04:33:40.096Z,1.30
2023-04-01T04:36:10.576Z,1.20
2023-04-01T04:38:38.838Z,1.25
2023-04-01T04:41:12.892Z,1.25
2023-04-01T04:43:41.459Z,1.20
2023-04-01T04:46:10.048Z,1.73
2023-04-01T04:48:38.341Z,1.42
2023-04-01T04:51:06.711Z,1.25
2023-04-01T04:53:36.321Z,1.55
2023-04-01T04:56:05.100Z,0.90
2023-04-01T04:58:33.469Z,1.33
2023-04-01T05:01:01.833Z,1.13
2023-04-01T05:03:30.103Z,1.17
2023-04-01T05:05:58.420Z,1.20
2023-04-01T05:08:26.823Z,1.20
2023-04-01T05:10:56.418Z,1.15
2023-04-01T05:13:24.588Z,1.40
2023-04-01T05:15:52.970Z,1.25
2023-04-01T05:18:21.320Z,1.10
2023-04-01T05:20:50.177Z,1.30
2023-04-01T05:23:18.608Z,1.08
2023-04-01T05:25:47.300Z,1.20
2023-04-01T05:28:16.934Z,0.80
2023-04-01T05:30:45.801Z,0.80
2023-04-01T05:33:15.832Z,1.00
2023-04-01T05:35:44.096Z,1.25
2023-04-01T05:38:12.203Z,1.15
2023-04-01T05:40:40.403Z,0.88
2023-04-01T05:43:08.478Z,1.20
2023-04-01T05:45:38.584Z,1.00
2023-04-01T05:48:07.413Z,0.95
2023-04-01T05:50:36.049Z,0.90
2023-04-01T05:53:04.254Z,1.00
2023-04-01T05:55:32.813Z,1.35
2023-04-01T05:58:01.231Z,1.15
2023-04-01T06:00:29.632Z,0.90
2023-04-01T06:03:00.958Z,1.20
2023-04-01T06:05:31.639Z,0.88
2023-04-01T06:08:03.258Z,1.23
2023-04-01T06:10:42.455Z,1.33
2023-04-01T06:13:20.882Z,1.08
2023-04-01T06:16:01.748Z,1.00
2023-04-01T06:18:55.555Z,1.48
2023-04-01T06:21:49.741Z,1.40
2023-04-01T06:24:41.018Z,1.02
2023-04-01T06:27:21.066Z,1.17
2023-04-01T06:30:19.110Z,1.10
2023-04-01T06:33:13.084Z,0.98
2023-04-01T06:36:03.728Z,1.10
2023-04-01T06:39:09.605Z,1.10
2023-04-01T06:42:07.303Z,1.00
2023-04-01T06:44:45.578Z,1.30
2023-04-01T06:47:31.307Z,1.10
2023-04-01T06:50:08.036Z,1.05
2023-04-01T06:52:44.710Z,1.10
2023-04-01T06:55:26.820Z,1.20
2023-04-01T06:57:58.349Z,1.20
2023-04-01T07:00:32.363Z,1.00
2023-04-01T07:03:09.471Z,0.90
2023-04-01T07:05:37.992Z,1.73
2023-04-01T07:08:15.237Z,1.08
2023-04-01T07:10:50.272Z,1.10
2023-04-01T07:13:24.232Z,1.10
2023-04-01T07:16:02.015Z,1.10
2023-04-01T07:18:38.016Z,1.00
2023-04-01T07:21:12.281Z,1.40
2023-04-01T07:23:47.037Z,0.90
2023-04-01T07:26:21.882Z,1.10
2023-04-01T07:28:51.258Z,0.80
2023-04-01T07:31:32.673Z,0.75
2023-04-01T07:34:08.041Z,0.90
2023-04-01T07:36:43.763Z,1.02
2023-04-01T07:39:28.106Z,0.98
2023-04-01T07:42:06.941Z,1.00
2023-04-01T07:44:42.695Z,1.00
2023-04-01T07:47:36.717Z,0.88
2023-04-01T07:50:13.772Z,0.82
2023-04-01T07:52:51.066Z,1.48
2023-04-01T07:55:26.309Z,1.10
2023-04-01T07:58:06.177Z,0.82
2023-04-01T08:00:44.843Z,1.30
2023-04-01T08:03:23.711Z,1.40
2023-04-01T08:05:58.281Z,0.95
2023-04-01T08:08:36.810Z,1.30
2023-04-01T08:11:15.578Z,0.90
2023-04-01T08:13:53.873Z,2.40
2023-04-01T08:16:33.938Z,0.90
2023-04-01T08:19:18.393Z,1.30
2023-04-01T08:21:58.865Z,0.98
2023-04-01T08:24:47.615Z,1.10
2023-04-01T08:27:26.881Z,1.10
2023-04-01T08:30:01.048Z,0.70
2023-04-01T08:32:35.105Z,0.70
2023-04-01T08:35:12.017Z,0.88
2023-04-01T08:37:44.097Z,0.85
2023-04-01T08:40:35.541Z,0.60
2023-04-01T08:43:17.186Z,1.40
2023-04-01T08:45:59.222Z,0.98
2023-04-01T08:48:56.452Z,1.23
2023-04-01T08:52:06.142Z,2.05
2023-04-01T08:54:57.820Z,0.80
2023-04-01T08:57:43.077Z,0.73
2023-04-01T09:00:23.533Z,0.77
2023-04-01T09:03:48.282Z,1.73
2023-04-01T09:06:34.416Z,0.93
2023-04-01T09:09:30.607Z,0.70
2023-04-01T09:12:22.871Z,0.80
2023-04-01T09:15:04.186Z,1.38
2023-04-01T09:18:08.316Z,0.90
2023-04-01T09:20:49.162Z,1.08
2023-04-01T09:23:34.778Z,0.90
2023-04-01T09:26:24.449Z,1.35
2023-04-01T09:29:04.773Z,1.10
2023-04-01T09:31:57.211Z,1.30
2023-04-01T09:34:47.576Z,0.90
2023-04-01T09:37:23.938Z,1.00
2023-04-01T09:40:11.526Z,0.90
2023-04-01T09:43:02.287Z,1.10
2023-04-01T09:45:44.679Z,1.00
2023-04-01T09:48:23.837Z,0.73
2023-04-01T09:51:04.271Z,0.90
2023-04-01T09:53:50.899Z,1.00
2023-04-01T09:57:04.127Z,0.90
2023-04-01T09:59:49.963Z,1.00
2023-04-01T10:02:51.292Z,1.00
2023-04-01T10:05:47.748Z,1.00
2023-04-01T10:09:00.616Z,1.02
2023-04-01T10:12:26.358Z,1.13
2023-04-01T10:15:27.407Z,1.10
2023-04-01T10:18:22.260Z,1.08
2023-04-01T10:21:16.010Z,1.17
2023-04-01T10:24:24.169Z,1.20
2023-04-01T10:27:13.746Z,1.10
2023-04-01T10:30:23.641Z,1.00
2023-04-01T10:33:34.239Z,1.20
2023-04-01T10:36:48.114Z,0.80
2023-04-01T10:40:09.511Z,1.50
2023-04-01T10:43:03.393Z,0.90
2023-04-01T10:46:15.727Z,1.08
2023-04-01T10:49:45.983Z,1.10
2023-04-01T10:53:03.894Z,0.82
2023-04-01T10:56:09.773Z,1.10
2023-04-01T10:59:17.148Z,0.90
2023-04-01T11:02:33.038Z,0.90
2023-04-01T11:05:36.240Z,1.17
2023-04-01T11:11:32.563Z,0.98
2023-04-01T11:14:42.400Z,0.93
2023-04-01T11:17:55.234Z,1.00
2023-04-01T11:20:57.927Z,0.60
2023-04-01T11:23:39.161Z,0.98
2023-04-01T11:26:23.786Z,1.52
2023-04-01T11:29:11.199Z,0.80
2023-04-01T11:31:53.221Z,0.98
2023-04-01T11:34:57.970Z,0.90
2023-04-01T11:37:39.506Z,0.85
2023-04-01T11:40:20.173Z,0.60
2023-04-01T11:42:56.676Z,1.15
2023-04-01T11:45:37.684Z,1.25
2023-04-01T11:48:28.338Z,0.63
2023-04-01T11:51:27.998Z,0.80
2023-04-01T11:54:06.486Z,0.95
2023-04-01T11:56:52.002Z,0.80
2023-04-01T11:59:55.466Z,0.80
2023-04-01T12:02:31.039Z,0.80
2023-04-01T12:05:33.195Z,0.75
2023-04-01T12:08:18.112Z,0.90
2023-04-01T12:10:55.513Z,0.70
2023-04-01T12:13:36.329Z,0.90
2023-04-01T12:16:25.618Z,0.80
2023-04-01T12:18:59.648Z,0.85
2023-04-01T12:21:34.935Z,1.00
2023-04-01T12:24:35.645Z,0.80
2023-04-01T12:27:26.130Z,0.70
2023-04-01T12:30:22.126Z,0.93
2023-04-01T12:33:03.232Z,1.10
2023-04-01T12:35:44.469Z,0.85
2023-04-01T12:38:26.609Z,0.90
2023-04-01T12:41:22.218Z,1.23
2023-04-01T12:44:26.192Z,0.98
2023-04-01T12:47:09.716Z,0.70
2023-04-01T12:49:55.994Z,0.90
2023-04-01T12:52:34.292Z,0.70
2023-04-01T12:55:27.084Z,0.80
2023-04-01T12:58:19.695Z,0.80
2023-04-01T13:01:12.682Z,1.00
2023-04-01T13:06:45.941Z,0.90
2023-04-01T13:09:25.160Z,0.80
2023-04-01T13:12:11.778Z,0.88
2023-04-01T13:14:59.934Z,0.80
2023-04-01T13:17:39.369Z,0.80
2023-04-01T13:20:18.003Z,0.80
2023-04-01T13:23:03.606Z,0.75
2023-04-01T13:25:41.250Z,0.88
2023-04-01T13:28:17.560Z,1.15
2023-04-01T13:30:58.862Z,0.85
2023-04-01T13:33:39.262Z,1.25
2023-04-01T13:36:20.949Z,0.82
2023-04-01T13:39:14.329Z,0.80
2023-04-01T13:41:58.199Z,1.00
2023-04-01T13:44:34.688Z,0.90
2023-04-01T13:47:25.620Z,0.90
2023-04-01T13:50:11.309Z,1.00
2023-04-01T13:53:13.353Z,0.80
2023-04-01T13:55:57.822Z,0.80
2023-04-01T13:58:52.326Z,0.88
2023-04-01T14:01:29.007Z,0.73
2023-04-01T14:04:14.004Z,0.82
2023-04-01T14:06:54.660Z,1.05
2023-04-01T14:09:45.155Z,0.68
2023-04-01T14:12:23.807Z,0.80
2023-04-01T14:15:06.540Z,1.10
2023-04-01T14:17:49.450Z,0.80
2023-04-01T14:20:30.463Z,1.08
2023-04-01T14:23:22.888Z,0.60
2023-04-01T14:26:26.589Z,0.82
2023-04-01T14:29:05.132Z,0.73
2023-04-01T14:31:41.701Z,0.50
2023-04-01T14:34:24.498Z,0.55
2023-04-01T14:37:05.651Z,0.50
2023-04-01T14:40:00.218Z,0.63
2023-04-01T14:42:47.958Z,0.63
2023-04-01T14:45:47.771Z,0.77
2023-04-01T14:48:27.406Z,0.80
2023-04-01T14:50:58.446Z,0.98
2023-04-01T14:53:31.787Z,1.00
2023-04-01T14:56:03.883Z,1.00
2023-04-01T14:58:45.163Z,1.08
2023-04-01T15:01:37.384Z,1.00
2023-04-01T15:04:26.369Z,0.97
2023-04-01T15:07:09.447Z,0.90
2023-04-01T15:09:47.003Z,0.82
2023-04-01T15:12:29.125Z,0.93
2023-04-01T15:15:12.400Z,0.70
2023-04-01T15:17:53.509Z,0.80
2023-04-01T15:20:36.290Z,0.80
2023-04-01T15:23:28.226Z,1.00
2023-04-01T15:26:22.262Z,0.88
2023-04-01T15:29:08.885Z,0.70
2023-04-01T15:31:45.002Z,0.82
2023-04-01T15:34:28.992Z,0.80
2023-04-01T15:37:02.779Z,0.60
2023-04-01T15:39:44.017Z,0.55
2023-04-01T15:42:27.917Z,0.70
2023-04-01T15:45:15.289Z,0.47
2023-04-01T15:47:48.640Z,0.50
2023-04-01T15:50:40.413Z,0.55
2023-04-01T15:53:21.139Z,0.63
2023-04-01T15:55:53.942Z,0.50
2023-04-01T15:58:49.425Z,0.60
2023-04-01T16:01:29.487Z,0.50
2023-04-01T16:04:09.666Z,0.80
2023-04-01T16:07:05.870Z,0.60
2023-04-01T16:09:58.729Z,0.70
2023-04-01T16:12:41.037Z,0.38
2023-04-01T16:15:20.352Z,0.60
2023-04-01T16:18:08.675Z,0.52
2023-04-01T16:20:49.086Z,0.55
2023-04-01T16:23:26.310Z,0.40
2023-04-01T16:26:00.738Z,0.40
2023-04-01T16:28:35.300Z,0.43
2023-04-01T16:31:09.210Z,0.40
2023-04-01T16:33:49.403Z,0.70
2023-04-01T16:36:31.921Z,0.50
2023-04-01T16:39:16.151Z,0.60
2023-04-01T16:41:51.614Z,0.70
2023-04-01T16:44:24.658Z,0.57
2023-04-01T16:46:55.195Z,0.57
2023-04-01T16:49:34.684Z,0.50
2023-04-01T16:52:17.097Z,0.57
2023-04-01T16:54:52.815Z,0.70
2023-04-01T16:57:27.518Z,0.57
2023-04-01T17:00:03.625Z,0.60
2023-04-01T17:02:39.478Z,0.43
2023-04-01T17:05:15.024Z,0.68
2023-04-01T17:07:59.867Z,0.60
2023-04-01T17:10:41.042Z,1.08
2023-04-01T17:13:27.728Z,0.52
2023-04-01T17:16:08.610Z,0.60
2023-04-01T17:18:48.952Z,0.70
2023-04-01T17:21:26.098Z,0.70
2023-04-01T17:24:03.860Z,0.82
2023-04-01T17:26:42.781Z,0.70
2023-04-01T17:29:19.726Z,0.60
2023-04-01T17:31:58.183Z,0.70
2023-04-01T17:35:02.285Z,0.65
2023-04-01T17:37:45.409Z,0.90
2023-04-01T17:40:55.614Z,0.73
2023-04-01T17:43:38.824Z,0.80
2023-04-01T17:46:25.770Z,0.90
2023-04-01T17:49:00.934Z,1.00
2023-04-01T17:51:39.273Z,0.80
2023-04-01T17:54:24.763Z,1.00
2023-04-01T17:57:09.622Z,0.98
2023-04-01T17:59:42.814Z,0.60
2023-04-01T18:02:26.069Z,0.85
2023-04-01T18:05:40.823Z,1.10
2023-04-01T18:08:21.211Z,1.10
2023-04-01T18:11:01.080Z,1.05
2023-04-01T18:14:22.082Z,1.13
2023-04-01T18:17:05.800Z,1.20
2023-04-01T18:19:50.487Z,1.20
2023-04-01T18:22:27.179Z,0.95
2023-04-01T18:25:04.557Z,0.90
2023-04-01T18:27:40.155Z,0.80
2023-04-01T18:30:16.824Z,0.90
2023-04-01T18:32:54.099Z,0.82
2023-04-01T18:35:35.161Z,0.65
2023-04-01T18:38:14.702Z,0.88
2023-04-01T18:40:49.689Z,1.05
2023-04-01T18:43:39.273Z,0.85
2023-04-01T18:46:19.605Z,1.23
2023-04-01T18:49:01.090Z,1.33
2023-04-01T18:51:42.303Z,1.50
2023-04-01T18:54:21.450Z,1.30
2023-04-01T18:56:51.619Z,1.15
2023-04-01T18:59:30.862Z,1.10
2023-04-01T19:02:09.352Z,1.33
2023-04-01T19:04:42.303Z,1.10
2023-04-01T19:07:45.506Z,0.95
2023-04-01T19:10:30.241Z,1.02
2023-04-01T19:13:20.813Z,0.90
2023-04-01T19:16:02.003Z,1.08
2023-04-01T19:18:50.672Z,1.13
2023-04-01T19:21:24.759Z,1.35
2023-04-01T19:24:39.829Z,1.00
2023-04-01T19:27:22.079Z,1.08
2023-04-01T19:30:22.025Z,1.08
2023-04-01T19:33:10.353Z,0.95
2023-04-01T19:35:46.234Z,1.60
2023-04-01T19:38:21.561Z,2.03
2023-04-01T19:40:56.488Z,3.28
2023-04-01T19:43:43.421Z,3.20
2023-04-01T19:46:21.805Z,2.90
2023-04-01T19:49:09.453Z,3.25
2023-04-01T19:51:44.334Z,3.42
2023-04-01T19:54:27.661Z,3.10
2023-04-01T19:57:05.036Z,2.58
2023-04-01T19:59:42.125Z,2.78
2023-04-01T20:02:46.916Z,3.00
2023-04-01T20:05:34.955Z,2.70
2023-04-01T20:08:13.661Z,2.75
2023-04-01T20:10:49.685Z,2.70
2023-04-01T20:13:30.078Z,2.15
2023-04-01T20:16:05.482Z,1.20
2023-04-01T20:18:46.803Z,1.50
2023-04-01T20:21:36.455Z,1.17
2023-04-01T20:24:18.651Z,1.33
2023-04-01T20:26:53.816Z,1.00
2023-04-01T20:29:38.385Z,1.10
2023-04-01T20:32:16.728Z,0.80
2023-04-01T20:35:01.820Z,1.63
2023-04-01T20:37:42.422Z,2.20
2023-04-01T20:40:33.218Z,2.55
2023-04-01T20:43:27.710Z,3.15
2023-04-01T20:46:01.911Z,2.88
2023-04-01T20:48:54.766Z,3.35
2023-04-01T20:51:27.635Z,3.03
2023-04-01T20:56:42.240Z,3.20
2023-04-01T20:59:31.341Z,3.58
2023-04-01T21:02:14.370Z,3.33
2023-04-01T21:07:37.219Z,3.20
2023-04-01T21:10:21.978Z,3.00
2023-04-01T21:12:55.895Z,3.22
2023-04-01T21:15:43.938Z,3.20
2023-04-01T21:18:25.466Z,4.05
2023-04-01T21:21:15.915Z,3.63
2023-04-01T21:23:58.460Z,3.60
2023-04-01T21:26:43.850Z,4.05
2023-04-01T21:29:32.260Z,4.18
2023-04-01T21:32:35.006Z,3.80
2023-04-01T21:35:11.415Z,3.92
2023-04-01T21:37:55.140Z,3.30
2023-04-01T21:40:59.744Z,3.30
2023-04-01T21:43:51.278Z,1.70
2023-04-01T21:46:44.827Z,1.60
2023-04-01T21:49:30.161Z,1.40
2023-04-01T21:52:33.921Z,1.10
2023-04-01T21:55:31.329Z,1.30
2023-04-01T21:58:43.990Z,1.30
2023-04-01T22:01:27.297Z,1.00
2023-04-01T22:04:19.399Z,1.10
2023-04-01T22:06:55.104Z,0.98
2023-04-01T22:09:30.676Z,0.80
2023-04-01T22:12:06.888Z,0.70
2023-04-01T22:14:43.079Z,1.00
2023-04-01T22:17:21.844Z,1.02
2023-04-01T22:19:56.936Z,0.77
2023-04-01T22:22:33.684Z,0.85
2023-04-01T22:25:10.446Z,0.90
2023-04-01T22:27:45.558Z,0.80
2023-04-01T22:30:22.957Z,0.60
2023-04-01T22:32:57.751Z,0.85
2023-04-01T22:35:34.769Z,0.60
2023-04-01T22:38:15.275Z,0.60
2023-04-01T22:40:49.990Z,0.52
2023-04-01T22:43:26.957Z,0.75
2023-04-01T22:46:12.956Z,0.60
2023-04-01T22:48:48.881Z,0.70
2023-04-01T22:51:21.409Z,0.65
2023-04-01T22:54:01.756Z,0.60
2023-04-01T22:56:35.079Z,0.70
2023-04-01T22:59:11.795Z,0.60
2023-04-01T23:01:47.254Z,0.60
2023-04-01T23:04:20.707Z,0.60
2023-04-01T23:06:54.124Z,0.60
2023-04-01T23:09:25.787Z,0.70
2023-04-01T23:11:57.351Z,0.60
2023-04-01T23:14:49.972Z,0.70
2023-04-01T23:17:38.737Z,0.57
2023-04-01T23:20:20.050Z,0.75
2023-04-01T23:22:58.982Z,0.60
2023-04-01T23:25:37.088Z,0.88
2023-04-01T23:28:26.267Z,0.75
2023-04-01T23:30:56.608Z,0.93
2023-04-01T23:33:30.025Z,1.10
2023-04-01T23:36:06.474Z,1.10
2023-04-01T23:38:37.298Z,1.10
2023-04-01T23:41:07.730Z,1.05
2023-04-01T23:43:41.609Z,1.10
2023-04-01T23:46:10.435Z,0.90
2023-04-01T23:48:41.401Z,1.10
2023-04-01T23:51:18.817Z,0.98
2023-04-01T23:53:48.763Z,0.80
2023-04-01T23:56:19.904Z,1.05
2023-04-01T23:58:53.415Z,1.20
